Time;durP1;ratioP1;P1;durP2;ratioP2;P2;SDS_P1;SDS_P2;PMS_P1;PMS_P2;Temp;Humidity;BMP_temperature;BMP_pressure;BME280_temperature;BME280_humidity;BME280_pressure;Samples;Min_cycle;Max_cycle;Signal;HPM_P1;HPM_P2
2022/03/15 00:01:13;;;;;;;0.70;0.70;;;5.70;58.90;;;4.58;42.87;96202.97;5026101;28;20204;-83
2022/03/15 00:03:40;;;;;;;0.55;0.55;;;5.60;59.00;;;4.60;43.15;96193.25;5035026;28;20302;-83
2022/03/15 00:06:08;;;;;;;0.65;0.65;;;5.70;59.30;;;4.62;42.57;96193.97;5015287;28;20291;-84
2022/03/15 00:08:36;;;;;;;0.70;0.70;;;5.60;59.20;;;4.63;42.81;96187.81;5022010;28;20763;-84
2022/03/15 00:11:05;;;;;;;0.60;0.60;;;5.60;59.10;;;4.64;42.70;96192.91;5050557;28;20208;-84
2022/03/15 00:13:36;;;;;;;0.70;0.70;;;5.60;58.90;;;4.61;42.28;96190.56;5049127;28;20220;-83
2022/03/15 00:16:05;;;;;;;0.60;0.60;;;5.60;59.00;;;4.58;42.41;96190.78;5031509;28;20717;-84
2022/03/15 00:18:33;;;;;;;0.60;0.60;;;5.60;58.80;;;4.55;42.54;96185.00;5049318;28;20235;-83
2022/03/15 00:21:04;;;;;;;0.60;0.60;;;5.60;58.90;;;4.55;42.70;96188.41;5050600;28;20749;-83
2022/03/15 00:23:32;;;;;;;0.60;0.60;;;5.60;59.30;;;4.51;42.83;96178.41;5037750;28;20215;-84
2022/03/15 00:26:00;;;;;;;0.60;0.60;;;5.60;59.40;;;4.53;43.54;96181.69;5047066;28;20239;-84
2022/03/15 00:28:29;;;;;;;0.68;0.68;;;5.60;59.50;;;4.55;43.54;96182.41;5045930;28;20247;-84
2022/03/15 00:30:58;;;;;;;0.60;0.60;;;5.60;60.00;;;4.54;43.60;96180.75;5049762;28;20181;-84
2022/03/15 00:33:27;;;;;;;0.60;0.60;;;5.60;59.90;;;4.55;43.27;96185.81;5065723;28;20216;-84
2022/03/15 00:35:54;;;;;;;0.80;0.80;;;5.60;59.90;;;4.56;43.73;96184.06;5015008;28;20231;-82
2022/03/15 00:38:24;;;;;;;0.80;0.80;;;5.50;59.90;;;4.57;43.64;96185.72;5031289;28;20220;-83
2022/03/15 00:40:52;;;;;;;0.60;0.60;;;5.60;60.00;;;4.53;44.08;96181.69;5015248;28;20247;-83
2022/03/15 00:43:21;;;;;;;0.60;0.60;;;5.60;60.20;;;4.56;44.91;96186.66;5047564;28;20713;-83
2022/03/15 00:45:49;;;;;;;0.60;0.60;;;5.60;60.40;;;4.45;44.67;96164.13;5016917;28;20283;-84
2022/03/15 00:48:17;;;;;;;0.70;0.70;;;5.60;60.50;;;4.57;44.32;96183.94;5018183;28;20221;-84
2022/03/15 00:50:44;;;;;;;0.80;0.80;;;5.50;60.20;;;4.60;43.86;96186.31;5027696;28;20819;-84
2022/03/15 00:53:11;;;;;;;0.70;0.70;;;5.60;60.20;;;4.57;44.37;96176.13;5019220;28;20247;-83
2022/03/15 00:55:42;;;;;;;0.60;0.60;;;5.60;60.50;;;4.60;44.43;96181.09;5003127;28;20211;-84
2022/03/15 00:58:10;;;;;;;0.80;0.80;;;5.60;60.40;;;4.59;45.10;96170.81;5001938;28;20212;-84
2022/03/15 01:00:39;;;;;;;0.60;0.60;;;5.60;60.80;;;4.63;45.37;96173.03;5026163;28;20297;-84
2022/03/15 01:03:07;;;;;;;0.80;0.80;;;5.60;60.90;;;4.62;45.19;96166.19;5034539;28;20205;-83
2022/03/15 01:05:35;;;;;;;0.60;0.60;;;5.60;60.90;;;4.65;44.64;96171.16;5017700;28;20205;-83
2022/03/15 01:08:03;;;;;;;0.60;0.60;;;5.60;60.80;;;4.64;44.59;96160.91;5034099;28;20211;-84
2022/03/15 01:10:30;;;;;;;0.73;0.73;;;5.60;60.80;;;4.69;44.33;96174.34;5034743;28;20303;-84
2022/03/15 01:12:59;;;;;;;0.60;0.60;;;5.60;60.80;;;4.72;44.32;96170.66;5032184;28;20715;-84
2022/03/15 01:15:42;;;;;;;0.70;0.70;;;5.60;60.70;;;4.72;44.67;96165.47;5053852;28;20211;-83
2022/03/15 01:18:11;;;;;;;0.60;0.60;;;5.70;60.70;;;4.72;45.82;96166.28;5055090;28;20259;-84
2022/03/15 01:20:40;;;;;;;0.60;0.60;;;5.60;61.00;;;4.74;45.06;96168.78;5032922;28;20320;-83
2022/03/15 01:23:08;;;;;;;0.60;0.60;;;5.60;61.10;;;4.71;44.88;96169.00;5053385;28;20196;-84
2022/03/15 01:25:37;;;;;;;0.60;0.60;;;5.70;61.00;;;4.71;44.72;96163.81;5054025;28;20224;-83
2022/03/15 01:28:05;;;;;;;0.70;0.70;;;5.70;61.10;;;4.72;44.69;96158.47;5037707;28;20200;-83
2022/03/15 01:30:32;;;;;;;0.68;0.68;;;5.70;61.10;;;4.75;44.77;96160.84;5068356;28;20198;-84
2022/03/15 01:32:59;;;;;;;0.70;0.70;;;5.70;61.00;;;4.73;44.59;96160.13;5053249;28;20661;-84
2022/03/15 01:35:27;;;;;;;0.60;0.60;;;5.70;61.00;;;4.65;44.56;96146.94;5025300;28;20718;-85
2022/03/15 01:37:54;;;;;;;0.80;0.80;;;5.70;61.00;;;4.64;44.61;96153.09;5017684;28;20227;-84
2022/03/15 01:40:22;;;;;;;0.57;0.57;;;5.70;61.00;;;4.68;45.11;96162.28;5028007;28;20220;-83
2022/03/15 01:42:49;;;;;;;0.57;0.57;;;5.70;61.10;;;4.69;44.98;96157.91;5053432;28;20658;-83
2022/03/15 01:45:16;;;;;;;0.60;0.60;;;5.70;61.10;;;4.53;45.56;96137.53;5069880;28;20223;-84
2022/03/15 01:47:44;;;;;;;0.60;0.60;;;5.70;61.30;;;4.61;45.54;96150.75;5063688;28;20287;-84
2022/03/15 01:50:11;;;;;;;0.60;0.60;;;5.70;61.40;;;4.71;45.10;96159.47;5033941;28;20694;-84
2022/03/15 01:52:40;;;;;;;0.65;0.65;;;5.70;61.30;;;4.62;44.97;96145.41;5033320;28;20196;-83
2022/03/15 01:55:07;;;;;;;0.70;0.70;;;5.70;61.20;;;4.69;44.73;96155.31;5033302;28;20217;-83
2022/03/15 01:57:34;;;;;;;0.73;0.73;;;5.70;61.00;;;4.53;44.60;96140.13;5036603;28;20199;-84
2022/03/15 02:00:04;;;;;;;0.55;0.55;;;5.60;60.80;;;4.56;44.30;96156.28;5051635;28;20752;-84
2022/03/15 02:02:31;;;;;;;0.60;0.60;;;5.60;60.80;;;4.51;44.29;96155.84;5036173;28;20543;-84
2022/03/15 02:04:59;;;;;;;0.70;0.70;;;5.60;60.70;;;4.37;44.98;96143.97;5053110;28;20218;-84
2022/03/15 02:07:26;;;;;;;0.80;0.80;;;5.60;60.90;;;4.41;44.86;96152.34;5050897;28;20201;-84
2022/03/15 02:09:53;;;;;;;0.60;0.60;;;5.50;61.00;;;4.35;44.98;96147.66;5047594;28;20220;-84
2022/03/15 02:12:20;;;;;;;0.70;0.70;;;5.50;61.10;;;4.33;45.08;96147.75;5033155;28;20196;-84
2022/03/15 02:14:48;;;;;;;0.60;0.60;;;5.50;61.10;;;4.31;45.30;96142.69;5032745;28;20256;-84
2022/03/15 02:17:16;;;;;;;0.60;0.60;;;5.40;61.10;;;4.23;45.12;96136.47;5027680;28;20196;-83
2022/03/15 02:19:44;;;;;;;0.60;0.60;;;5.40;61.30;;;4.29;45.62;96139.38;5035691;28;20262;-84
2022/03/15 02:22:11;;;;;;;0.70;0.70;;;5.40;61.50;;;4.23;45.82;96123.47;5052768;28;20188;-84
2022/03/15 02:24:39;;;;;;;0.60;0.60;;;5.40;61.60;;;4.31;45.74;96134.09;5064491;28;20247;-84
2022/03/15 02:27:07;;;;;;;0.70;0.70;;;5.30;61.70;;;4.34;45.75;96128.63;5032744;28;20247;-84
2022/03/15 02:29:34;;;;;;;0.60;0.60;;;5.30;61.70;;;4.34;45.87;96128.63;5035000;28;20307;-84
2022/03/15 02:32:01;;;;;;;0.60;0.60;;;5.30;61.80;;;4.37;45.92;96130.16;5052425;28;20249;-84
2022/03/15 02:34:28;;;;;;;0.60;0.60;;;5.30;61.90;;;4.38;45.98;96134.41;5050523;28;20214;-83
2022/03/15 02:36:56;;;;;;;0.60;0.60;;;5.30;62.00;;;4.38;45.66;96130.03;5032560;28;20200;-83
2022/03/15 02:39:24;;;;;;;0.60;0.60;;;5.40;62.00;;;4.40;45.80;96122.13;5032519;28;20243;-84
2022/03/15 02:41:52;;;;;;;0.70;0.70;;;5.30;62.10;;;4.39;45.67;96118.69;5032108;28;20200;-84
2022/03/15 02:44:19;;;;;;;0.60;0.60;;;5.40;62.10;;;4.41;46.17;96119.41;5035424;28;20247;-84
2022/03/15 02:46:50;;;;;;;0.60;0.60;;;5.40;62.10;;;4.38;46.17;96113.63;5052066;28;20208;-84
2022/03/15 02:49:17;;;;;;;0.50;0.50;;;5.40;62.50;;;4.40;45.95;96122.13;5050511;28;20244;-83
2022/03/15 02:51:45;;;;;;;0.63;0.63;;;5.40;62.10;;;4.38;45.66;96121.41;5050738;28;20216;-84
2022/03/15 02:54:13;;;;;;;0.70;0.70;;;5.40;62.10;;;4.35;45.99;96109.50;5045822;28;20484;-83
2022/03/15 02:56:42;;;;;;;0.60;0.60;;;5.40;62.10;;;4.24;45.71;96094.78;5025108;28;20236;-84
2022/03/15 02:59:14;;;;;;;0.60;0.60;;;5.40;62.20;;;4.40;46.02;96119.53;5034416;28;20212;-84
2022/03/15 03:01:47;;;;;;;0.70;0.70;;;5.40;62.30;;;4.38;46.27;96124.84;5042879;28;20199;-84
2022/03/15 03:04:21;;;;;;;0.50;0.50;;;5.40;62.70;;;4.19;46.48;96099.53;5048435;28;20259;-84
2022/03/15 03:06:49;;;;;;;0.60;0.60;;;5.40;62.30;;;4.28;46.58;96101.38;5030870;28;20253;-83
2022/03/15 03:09:16;;;;;;;0.60;0.60;;;5.40;62.30;;;4.33;46.33;96114.81;5017621;28;20266;-82
2022/03/15 03:11:44;;;;;;;0.60;0.60;;;5.40;62.30;;;4.35;46.46;96122.50;5017090;28;20200;-83
2022/03/15 03:14:13;;;;;;;0.60;0.60;;;5.40;62.40;;;4.36;46.61;96123.31;5031878;28;20702;-84
2022/03/15 03:16:41;;;;;;;0.80;0.80;;;5.40;62.50;;;4.38;46.68;96116.22;5035082;28;20232;-84
2022/03/15 03:19:08;;;;;;;0.70;0.70;;;5.40;62.60;;;4.42;47.05;96118.44;5050920;28;20574;-83
2022/03/15 03:21:36;;;;;;;0.60;0.60;;;5.40;62.60;;;4.43;46.90;96114.91;5031706;28;20577;-84
2022/03/15 03:24:08;;;;;;;0.60;0.60;;;5.40;62.60;;;4.45;46.67;96117.38;5031977;28;20221;-84
2022/03/15 03:26:38;;;;;;;0.70;0.70;;;5.40;62.70;;;4.43;47.13;96117.50;5043668;28;20192;-83
2022/03/15 03:29:09;;;;;;;0.60;0.60;;;5.40;62.80;;;4.47;46.65;96121.50;5068362;28;20701;-84
2022/03/15 03:31:42;;;;;;;0.68;0.68;;;5.40;62.70;;;4.47;47.06;96115.50;5068591;28;20729;-84
2022/03/15 03:34:11;;;;;;;0.70;0.70;;;5.40;63.20;;;4.49;46.93;96122.22;5017140;28;20220;-82
2022/03/15 03:36:39;;;;;;;0.60;0.60;;;5.40;62.80;;;4.52;46.65;96112.50;5051256;28;20196;-84
2022/03/15 03:39:26;;;;;;;0.70;0.70;;;5.50;62.80;;;4.52;47.10;96121.13;5019075;28;20216;-83
2022/03/15 03:41:54;;;;;;;0.70;0.70;;;5.40;62.70;;;4.44;47.09;96103.56;5019783;28;20279;-83
2022/03/15 03:44:21;;;;;;;0.60;0.60;;;5.50;62.90;;;4.42;46.93;96099.44;5051474;28;20269;-84
2022/03/15 03:46:48;;;;;;;0.60;0.60;;;5.50;62.90;;;4.56;47.55;96114.72;5047521;28;20291;-84
2022/03/15 03:49:16;;;;;;;0.60;0.60;;;5.50;63.10;;;4.59;47.25;96118.84;5013597;28;20772;-83
2022/03/15 03:51:43;;;;;;;0.70;0.70;;;5.50;63.00;;;4.60;47.03;96110.94;5034809;28;20654;-84
2022/03/15 03:54:11;;;;;;;0.50;0.50;;;5.50;64.00;;;4.62;47.18;96101.22;5028036;28;20682;-83
2022/03/15 03:56:39;;;;;;;0.60;0.60;;;5.50;63.10;;;4.57;46.91;96093.00;5012200;28;20205;-84
2022/03/15 03:59:07;;;;;;;0.60;0.60;;;5.50;63.10;;;4.62;46.96;96097.81;5015684;28;20224;-84
2022/03/15 04:01:35;;;;;;;0.50;0.50;;;5.50;63.10;;;4.66;47.27;96107.00;5032877;28;20307;-83
2022/03/15 04:04:05;;;;;;;0.50;0.50;;;5.50;63.00;;;4.66;47.06;96104.41;5064559;28;20311;-84
2022/03/15 04:06:33;;;;;;;0.60;0.60;;;5.60;63.10;;;4.65;46.88;96106.19;5031299;28;20201;-83
2022/03/15 04:09:01;;;;;;;0.60;0.60;;;5.60;63.30;;;4.66;47.22;96096.59;5047839;28;20217;-83
2022/03/15 04:11:31;;;;;;;0.65;0.65;;;5.60;63.10;;;4.67;46.96;96102.66;5047506;28;20569;-85
2022/03/15 04:13:59;;;;;;;0.57;0.57;;;5.60;63.20;;;4.69;47.24;96100.72;5046502;28;20767;-84
2022/03/15 04:16:28;;;;;;;0.52;0.52;;;5.60;63.20;;;4.70;47.25;96097.19;5034982;28;20226;-84
2022/03/15 04:18:55;;;;;;;0.70;0.70;;;5.60;63.20;;;4.70;47.12;96095.44;5034867;28;20228;-84
2022/03/15 04:21:24;;;;;;;0.70;0.70;;;5.60;63.20;;;4.71;47.14;96094.47;5049612;28;20224;-84
2022/03/15 04:23:54;;;;;;;0.73;0.73;;;5.60;63.40;;;4.69;47.28;96091.19;5054139;28;20219;-83
2022/03/15 04:26:22;;;;;;;0.60;0.60;;;5.60;63.40;;;4.71;47.44;96093.63;5018848;28;20250;-84
2022/03/15 04:28:49;;;;;;;0.70;0.70;;;5.60;63.20;;;4.70;47.02;96090.22;5038318;28;20256;-84
2022/03/15 04:31:17;;;;;;;0.70;0.70;;;5.60;63.10;;;4.68;47.01;96080.91;5044848;28;20203;-85
2022/03/15 04:33:44;;;;;;;0.70;0.70;;;5.60;63.00;;;4.60;47.17;96066.78;5051583;28;20291;-83
2022/03/15 04:36:11;;;;;;;0.70;0.70;;;5.60;63.00;;;4.54;47.48;96075.06;5052587;28;20211;-84
2022/03/15 04:38:39;;;;;;;0.80;0.80;;;5.60;63.10;;;4.62;47.32;96090.03;5052986;28;20243;-84
2022/03/15 04:41:07;;;;;;;0.60;0.60;;;5.60;63.00;;;4.59;47.41;96083.31;5059401;28;20216;-83
2022/03/15 04:43:34;;;;;;;0.50;0.50;;;5.60;63.00;;;4.57;47.38;96086.97;5044425;28;20220;-84
2022/03/15 04:46:01;;;;;;;0.70;0.70;;;5.50;63.00;;;4.56;47.50;96087.94;5051163;28;20390;-83
2022/03/15 04:48:33;;;;;;;0.60;0.60;;;5.50;62.80;;;4.54;47.52;96088.06;5057910;28;20224;-85
2022/03/15 04:51:05;;;;;;;0.50;0.50;;;5.50;62.80;;;4.48;46.97;96081.59;5003232;28;20288;-83
2022/03/15 04:53:32;;;;;;;0.60;0.60;;;5.50;62.70;;;4.48;46.96;96085.97;5020686;28;20642;-83
2022/03/15 04:55:59;;;;;;;0.60;0.60;;;5.50;62.70;;;4.46;46.76;96087.84;5034471;28;20235;-84
2022/03/15 04:58:27;;;;;;;0.73;0.73;;;5.40;62.70;;;4.44;46.78;96088.00;5043372;28;20297;-84
2022/03/15 05:00:54;;;;;;;0.50;0.50;;;5.40;62.70;;;4.41;47.18;96083.03;5052443;28;20212;-83
2022/03/15 05:03:22;;;;;;;0.70;0.70;;;5.40;62.70;;;4.28;46.73;96061.59;5052589;28;20227;-83
2022/03/15 05:05:50;;;;;;;0.60;0.60;;;5.40;62.60;;;4.35;46.50;96078.34;5054375;28;20211;-83
2022/03/15 05:08:17;;;;;;;0.70;0.70;;;5.30;62.50;;;4.32;46.51;96073.38;5020581;28;20614;-84
2022/03/15 05:13:31;;;;;;;0.50;0.50;;;5.30;62.50;;;4.23;46.48;96067.16;5054150;28;20282;-84
2022/03/15 05:15:58;;;;;;;0.70;0.70;;;5.30;62.40;;;4.04;46.76;96054.00;5043777;28;20196;-84
2022/03/15 05:18:26;;;;;;;0.80;0.80;;;5.20;62.40;;;4.16;46.79;96066.00;5067486;28;20251;-84
2022/03/15 05:20:53;;;;;;;0.80;0.80;;;5.20;62.50;;;4.12;46.92;96062.00;5053337;28;20231;-84
2022/03/15 05:23:20;;;;;;;0.60;0.60;;;5.20;62.60;;;4.09;46.87;96060.47;5050818;28;20212;-84
2022/03/15 05:25:47;;;;;;;0.60;0.60;;;5.20;62.70;;;4.09;47.16;96068.28;5036622;28;20196;-84
2022/03/15 05:28:14;;;;;;;0.70;0.70;;;5.10;62.80;;;4.07;47.02;96061.56;5023689;28;20239;-83
2022/03/15 05:30:41;;;;;;;0.60;0.60;;;5.10;62.80;;;4.08;46.90;96055.44;5033311;28;20255;-83
2022/03/15 05:33:09;;;;;;;0.60;0.60;;;5.10;62.80;;;4.03;46.88;96048.00;5027908;28;20239;-84
2022/03/15 05:35:41;;;;;;;0.60;0.60;;;5.10;62.90;;;4.07;46.87;96049.38;5018386;28;20201;-84
2022/03/15 05:38:09;;;;;;;0.60;0.60;;;5.00;62.80;;;4.09;46.90;96049.25;5017422;28;20571;-84
2022/03/15 05:40:36;;;;;;;0.73;0.73;;;5.00;62.80;;;4.06;46.83;96039.13;5018341;28;20228;-84
2022/03/15 05:43:03;;;;;;;0.60;0.60;;;5.00;62.90;;;4.01;47.08;96026.53;5059998;28;20270;-84
2022/03/15 05:45:31;;;;;;;0.70;0.70;;;5.00;62.90;;;4.14;46.98;96047.94;5034680;28;20241;-84
2022/03/15 05:47:58;;;;;;;0.70;0.70;;;5.00;62.90;;;4.18;46.96;96040.75;5029685;28;20204;-84
2022/03/15 05:50:25;;;;;;;0.60;0.60;;;5.00;63.00;;;4.22;47.17;96044.72;5053354;28;20199;-85
2022/03/15 05:52:52;;;;;;;0.77;0.77;;;5.00;63.00;;;4.24;46.66;96042.03;5052757;28;20690;-84
2022/03/15 05:55:21;;;;;;;0.70;0.70;;;5.10;63.10;;;4.10;46.76;96007.63;5036763;28;20246;-84
2022/03/15 05:57:48;;;;;;;0.63;0.63;;;5.10;63.10;;;4.31;46.86;96038.78;5053288;28;20224;-84
2022/03/15 06:00:16;;;;;;;0.63;0.63;;;5.10;63.10;;;4.37;46.55;96037.47;5036395;28;20744;-84
2022/03/15 06:02:44;;;;;;;0.70;0.70;;;5.20;63.10;;;4.36;47.31;96022.00;5035078;28;20203;-84
2022/03/15 06:05:12;;;;;;;0.60;0.60;;;5.20;63.00;;;4.44;46.73;96035.19;5053188;28;20216;-85
2022/03/15 06:07:48;;;;;;;0.60;0.60;;;5.20;63.10;;;4.46;46.75;96028.91;5036745;28;20211;-83
2022/03/15 06:10:20;;;;;;;0.70;0.70;;;5.20;63.30;;;4.47;46.96;96020.19;5034282;28;20318;-85
2022/03/15 06:12:48;;;;;;;0.70;0.70;;;5.30;63.20;;;4.52;46.70;96031.94;5049758;28;20259;-85
2022/03/15 06:15:16;;;;;;;0.70;0.70;;;5.30;63.00;;;4.47;46.79;96007.19;5033127;28;20721;-84
2022/03/15 06:17:56;;;;;;;0.60;0.60;;;5.30;62.90;;;4.61;47.06;96041.59;5033182;28;20655;-84
2022/03/15 06:20:24;;;;;;;0.70;0.70;;;5.30;63.20;;;4.64;46.70;96036.97;5033327;28;20694;-84
2022/03/15 06:22:56;;;;;;;0.75;0.75;;;5.40;63.00;;;4.63;46.80;96027.53;5032862;28;20187;-83
2022/03/15 06:25:25;;;;;;;0.60;0.60;;;5.40;62.90;;;4.70;46.65;96024.41;5033085;28;20663;-84
2022/03/15 06:27:53;;;;;;;0.70;0.70;;;5.40;62.90;;;4.79;46.57;96034.06;5032931;28;20250;-85
2022/03/15 06:30:21;;;;;;;0.65;0.65;;;5.50;63.00;;;4.84;46.61;96037.09;5033734;28;20235;-84
2022/03/15 06:32:48;;;;;;;0.70;0.70;;;5.50;63.00;;;4.91;46.68;96030.44;5032953;28;20319;-84
2022/03/15 06:35:15;;;;;;;0.50;0.50;;;5.60;63.00;;;4.97;46.63;96040.31;5032458;28;20220;-84
2022/03/15 06:37:45;;;;;;;0.70;0.70;;;5.60;63.10;;;5.04;46.83;96037.19;5017425;28;20193;-84
2022/03/15 06:40:16;;;;;;;0.60;0.60;;;5.60;63.00;;;5.08;46.58;96034.22;5032484;28;20259;-85
2022/03/15 06:42:44;;;;;;;0.52;0.52;;;5.70;63.00;;;5.19;46.36;96045.47;5031627;28;20258;-84
2022/03/15 06:45:11;;;;;;;0.50;0.50;;;5.70;62.90;;;5.25;46.37;96037.97;5048863;28;20282;-84
2022/03/15 06:47:39;;;;;;;0.60;0.60;;;5.80;63.00;;;5.33;46.18;96028.69;5034681;28;20731;-83
2022/03/15 06:50:08;;;;;;;0.70;0.70;;;5.90;62.90;;;5.37;46.31;96020.50;5052569;28;20216;-84
2022/03/15 06:52:37;;;;;;;0.50;0.50;;;5.90;62.90;;;5.38;45.91;96003.94;5035774;28;20295;-85
2022/03/15 06:55:06;;;;;;;0.70;0.70;;;6.00;62.90;;;5.54;46.35;96016.44;5052229;28;20759;-84
2022/03/15 06:57:34;;;;;;;0.60;0.60;;;6.00;62.90;;;5.63;46.19;96027.00;5038997;28;20196;-85
2022/03/15 07:00:08;;;;;;;0.70;0.70;;;6.10;63.00;;;5.73;46.17;96017.44;5016140;28;20248;-85
2022/03/15 07:02:35;;;;;;;0.73;0.73;;;6.20;63.10;;;5.82;46.48;96008.81;5032356;28;20247;-84
2022/03/15 07:05:03;;;;;;;0.60;0.60;;;6.30;62.90;;;5.95;45.93;96013.78;5015700;28;20279;-85
2022/03/15 07:07:30;;;;;;;0.52;0.52;;;6.40;62.90;;;6.04;45.96;96018.22;5006685;28;20238;-85
2022/03/15 07:09:58;;;;;;;0.55;0.55;;;6.40;62.80;;;6.13;45.78;96013.13;5026579;28;20247;-85
2022/03/15 07:12:25;;;;;;;0.80;0.80;;;6.50;62.80;;;6.23;45.66;96012.16;5049063;28;20219;-84
2022/03/15 07:14:53;;;;;;;0.60;0.60;;;6.60;62.80;;;6.33;45.58;96013.97;5031815;28;20235;-85
2022/03/15 07:17:20;;;;;;;0.70;0.70;;;6.70;62.80;;;6.38;45.61;96004.78;5048602;28;20266;-85
2022/03/15 07:19:47;;;;;;;0.60;0.60;;;6.70;62.60;;;6.45;45.31;95999.00;5032282;28;20212;-85
2022/03/15 07:22:14;;;;;;;0.60;0.60;;;6.80;62.50;;;6.44;45.23;95992.97;5048336;28;20713;-85
2022/03/15 07:24:41;;;;;;;0.60;0.60;;;6.90;62.50;;;6.56;45.32;96001.44;5050049;28;20671;-85
2022/03/15 07:27:09;;;;;;;0.70;0.70;;;7.00;62.40;;;6.63;45.37;96001.69;5034950;28;20202;-85
2022/03/15 07:29:36;;;;;;;0.50;0.50;;;7.00;62.40;;;6.66;45.45;95988.41;5035385;28;20701;-85
2022/03/15 07:32:04;;;;;;;0.57;0.57;;;7.10;62.40;;;6.78;45.27;95997.69;5033707;28;20223;-85
2022/03/15 07:34:31;;;;;;;0.70;0.70;;;7.20;62.30;;;6.82;45.11;95993.88;5027622;28;20228;-84
2022/03/15 07:36:58;;;;;;;0.60;0.60;;;7.20;62.30;;;6.86;44.86;95978.72;5035578;28;20195;-84
2022/03/15 07:39:25;;;;;;;0.50;0.50;;;7.30;62.30;;;6.96;44.98;95981.34;5038630;28;20298;-85
2022/03/15 07:41:53;;;;;;;0.80;0.80;;;7.40;62.30;;;7.04;45.27;95981.41;5015305;28;20323;-84
2022/03/15 07:44:21;;;;;;;0.55;0.55;;;7.50;62.30;;;7.19;44.88;95993.03;5032489;28;20591;-85
2022/03/15 07:46:48;;;;;;;0.60;0.60;;;7.50;62.10;;;7.26;44.61;95988.03;5048511;28;20228;-85
2022/03/15 07:49:18;;;;;;;0.52;0.52;;;7.60;62.20;;;7.37;44.87;95989.66;5031795;28;20220;-85
2022/03/15 07:51:48;;;;;;;0.60;0.60;;;7.70;62.10;;;7.39;44.93;95972.06;5031834;28;20232;-85
2022/03/15 07:54:16;;;;;;;0.60;0.60;;;7.70;62.00;;;7.56;44.61;95977.47;5032882;28;20216;-85
2022/03/15 07:56:47;;;;;;;0.50;0.50;;;7.80;61.90;;;7.63;44.50;95974.13;5052923;28;20197;-85
2022/03/15 07:59:17;;;;;;;0.60;0.60;;;7.90;61.90;;;7.74;44.33;95980.94;5036758;28;20219;-85
2022/03/15 08:01:45;;;;;;;0.50;0.50;;;8.00;61.90;;;7.84;44.36;95973.03;5053178;28;20219;-84
2022/03/15 08:04:13;;;;;;;0.52;0.52;;;8.10;61.90;;;7.92;44.25;95970.50;5037810;28;20211;-84
2022/03/15 08:06:40;;;;;;;0.50;0.50;;;8.10;61.90;;;8.01;44.19;95979.25;5069145;28;20277;-84
2022/03/15 08:09:07;;;;;;;0.50;0.50;;;8.30;61.90;;;8.11;44.02;95971.31;5035603;28;20225;-84
2022/03/15 08:11:37;;;;;;;0.40;0.40;;;8.30;62.70;;;8.06;44.08;95955.28;5039012;28;20283;-85
2022/03/15 08:14:07;;;;;;;0.70;0.70;;;8.40;61.80;;;8.29;43.93;95964.28;5055606;28;20645;-85
2022/03/15 08:16:34;;;;;;;0.60;0.60;;;8.50;61.80;;;8.44;43.98;95961.13;5064142;28;20193;-85
2022/03/15 08:19:02;;;;;;;0.50;0.50;;;8.60;61.80;;;8.58;44.00;95971.06;5051472;28;20281;-85
2022/03/15 08:21:29;;;;;;;0.50;0.50;;;8.60;61.70;;;8.67;43.96;95958.88;5034768;28;20233;-85
2022/03/15 08:23:56;;;;;;;0.70;0.70;;;8.80;61.70;;;8.70;43.81;95957.72;5019091;28;20282;-85
2022/03/15 08:26:23;;;;;;;0.45;0.45;;;8.90;61.70;;;8.81;43.54;95954.84;5025806;28;20216;-85
2022/03/15 08:28:52;;;;;;;0.60;0.60;;;8.90;61.50;;;8.81;43.46;95934.75;5033100;28;20263;-84
2022/03/15 08:31:20;;;;;;;0.57;0.57;;;9.10;61.40;;;9.02;43.36;95959.72;5065073;28;20634;-85
2022/03/15 08:33:47;;;;;;;0.60;0.60;;;9.10;61.30;;;9.12;43.29;95960.41;5054746;28;20224;-84
2022/03/15 08:36:15;;;;;;;0.70;0.70;;;9.20;61.10;;;9.19;43.07;95959.78;5048794;28;20217;-85
2022/03/15 08:38:43;;;;;;;0.60;0.60;;;9.30;61.10;;;9.17;42.83;95946.03;5034812;28;20296;-84
2022/03/15 08:41:11;;;;;;;0.60;0.60;;;9.40;60.90;;;9.28;42.81;95959.66;5035938;28;20225;-85
2022/03/15 08:43:38;;;;;;;0.80;0.80;;;9.50;60.80;;;9.32;42.67;95946.28;5036056;28;20212;-85
2022/03/15 08:46:05;;;;;;;0.60;0.60;;;9.50;60.70;;;9.25;42.54;95922.50;5054629;28;20266;-84
2022/03/15 08:48:33;;;;;;;0.70;0.70;;;9.50;60.70;;;9.39;42.16;95926.34;5034049;28;20290;-84
2022/03/15 08:51:01;;;;;;;0.70;0.70;;;9.60;60.60;;;9.55;42.49;95941.25;5038316;28;20225;-84
2022/03/15 08:53:32;;;;;;;0.55;0.55;;;9.70;60.60;;;9.65;42.43;95943.75;5034009;28;20223;-85
2022/03/15 08:56:00;;;;;;;0.80;0.80;;;9.80;60.60;;;9.71;42.33;95917.72;5036604;28;20730;-84
2022/03/15 08:58:27;;;;;;;0.55;0.55;;;9.80;60.50;;;9.66;42.01;95890.38;5037527;28;20223;-85
2022/03/15 09:00:55;;;;;;;0.70;0.70;;;9.90;60.30;;;9.85;41.94;95916.28;5050806;28;20270;-85
2022/03/15 09:03:24;;;;;;;0.60;0.60;;;9.90;60.30;;;9.94;41.94;95923.16;5034269;28;20721;-84
2022/03/15 09:05:52;;;;;;;0.60;0.60;;;10.00;58.70;;;9.99;42.06;95919.22;5017370;28;20242;-85
2022/03/15 09:08:22;;;;;;;0.60;0.60;;;10.10;58.70;;;10.21;41.84;95918.56;5035427;28;20220;-85
2022/03/15 09:10:49;;;;;;;0.70;0.70;;;10.20;59.00;;;10.20;41.83;95887.28;5052557;28;20212;-85
2022/03/15 09:13:16;;;;;;;0.80;0.80;;;10.30;58.90;;;10.45;41.61;95916.13;5041040;28;20204;-86
2022/03/15 09:15:44;;;;;;;0.60;0.60;;;10.40;58.70;;;10.56;41.59;95906.09;5054451;28;20199;-86
2022/03/15 09:18:12;;;;;;;0.57;0.57;;;10.50;58.60;;;10.63;41.56;95903.66;5041068;28;20192;-85
2022/03/15 09:20:41;;;;;;;0.50;0.50;;;10.60;58.50;;;10.70;41.20;95888.84;5027348;28;20298;-85
2022/03/15 09:23:08;;;;;;;0.60;0.60;;;10.70;58.30;;;10.80;41.17;95887.84;5041339;28;20224;-85
2022/03/15 09:25:36;;;;;;;0.57;0.57;;;10.70;58.10;;;10.87;41.20;95888.81;5036832;28;20192;-86
2022/03/15 09:28:04;;;;;;;0.70;0.70;;;10.80;58.00;;;10.98;40.92;95885.00;5037245;28;20200;-85
2022/03/15 09:30:33;;;;;;;0.60;0.60;;;10.90;57.90;;;11.05;41.32;95878.09;5053244;28;20199;-85
2022/03/15 09:33:00;;;;;;;0.60;0.60;;;11.00;58.00;;;11.19;40.94;95876.53;5032821;28;20633;-84
2022/03/15 09:35:27;;;;;;;0.60;0.60;;;11.10;58.00;;;11.20;40.54;95867.66;5033722;28;20196;-85
2022/03/15 09:37:55;;;;;;;0.50;0.50;;;11.20;57.70;;;11.33;40.51;95880.25;5033449;28;20194;-84
2022/03/15 09:40:25;;;;;;;0.60;0.60;;;11.30;57.60;;;11.42;40.22;95878.41;5050103;28;20287;-84
2022/03/15 09:43:01;;;;;;;0.50;0.50;;;11.40;57.30;;;11.52;40.10;95881.59;5036462;28;20211;-85
2022/03/15 09:45:32;;;;;;;0.80;0.80;;;11.60;57.20;;;11.57;40.09;95881.94;5050961;28;20214;-85
2022/03/15 09:48:04;;;;;;;0.57;0.57;;;11.60;57.20;;;11.71;40.02;95888.22;5052291;28;20274;-84
2022/03/15 09:50:31;;;;;;;0.52;0.52;;;11.70;57.20;;;11.78;39.74;95877.81;5037577;28;20262;-83
2022/03/15 09:52:59;;;;;;;0.60;0.60;;;11.70;56.80;;;11.85;39.77;95881.38;5031872;28;20210;-84
2022/03/15 09:55:27;;;;;;;0.60;0.60;;;11.90;56.90;;;11.91;39.98;95878.06;5057633;28;20207;-84
2022/03/15 09:57:56;;;;;;;0.80;0.80;;;11.90;56.90;;;11.93;39.37;95860.31;5054590;28;20219;-84
2022/03/15 10:00:25;;;;;;;0.70;0.70;;;12.00;56.70;;;11.94;39.81;95845.38;5046275;28;20200;-84
2022/03/15 10:02:54;;;;;;;0.50;0.50;;;12.00;56.30;;;12.05;39.37;95852.00;5004377;28;20224;-85
2022/03/15 10:05:21;;;;;;;0.60;0.60;;;12.00;56.20;;;12.16;39.52;95854.25;5052181;28;20558;-84
2022/03/15 10:07:50;;;;;;;0.57;0.57;;;12.20;56.40;;;12.22;39.52;95857.94;5029682;28;20239;-85
2022/03/15 10:10:17;;;;;;;0.60;0.60;;;12.20;56.40;;;12.28;39.60;95865.13;5021020;28;20246;-84
2022/03/15 10:12:44;;;;;;;0.50;0.50;;;12.20;56.40;;;12.34;39.33;95856.53;5038796;28;20673;-84
2022/03/15 10:15:19;;;;;;;0.60;0.60;;;12.30;56.50;;;12.40;39.54;95839.19;5029294;28;20325;-85
2022/03/15 10:17:55;;;;;;;0.60;0.60;;;12.30;56.50;;;12.41;39.10;95839.00;5047478;28;20190;-85
2022/03/15 10:20:31;;;;;;;0.50;0.50;;;12.40;56.60;;;12.42;39.00;95830.13;5039919;28;20207;-84
2022/03/15 10:23:02;;;;;;;0.50;0.50;;;12.50;56.60;;;12.44;39.10;95837.88;5015683;28;20310;-85
2022/03/15 10:25:34;;;;;;;0.57;0.57;;;12.50;56.70;;;12.44;38.78;95825.50;5060551;28;20223;-84
2022/03/15 10:28:06;;;;;;;0.50;0.50;;;12.50;56.10;;;12.51;39.01;95833.47;5048381;28;20662;-85
2022/03/15 10:30:35;;;;;;;0.50;0.50;;;12.60;56.10;;;12.57;39.29;95822.25;5023220;28;20200;-85
2022/03/15 10:33:04;;;;;;;0.50;0.50;;;12.60;56.20;;;12.60;39.07;95821.88;5021815;28;20196;-84
2022/03/15 10:35:37;;;;;;;0.60;0.60;;;12.60;55.90;;;12.62;38.59;95819.91;5047634;28;20633;-85
2022/03/15 10:38:06;;;;;;;0.57;0.57;;;12.70;56.00;;;12.74;38.71;95801.00;5022858;28;20188;-85